Time;durP1;ratioP1;P1;durP2;ratioP2;P2;SDS_P1;SDS_P2;PMS_P1;PMS_P2;Temp;Humidity;BMP_temperature;BMP_pressure;BME280_temperature;BME280_humidity;BME280_pressure;Samples;Min_cycle;Max_cycle;Signal;HPM_P1;HPM_P2
2024/04/10 00:00:53;;;;;;;;;;;;;;;16.04;46.59;100901.84;5459155;26;1280;-58
2024/04/10 00:03:18;;;;;;;;;;;;;;;15.82;46.11;100897.09;5458655;26;1164;-59
2024/04/10 00:05:56;;;;;;;;;;;;;;;15.76;45.44;100893.09;5458928;26;1843;-59
2024/04/10 00:08:22;;;;;;;;;;;;;;;15.53;45.78;100880.41;5459310;26;1400;-62
2024/04/10 00:10:48;;;;;;;;;;;;;;;17.23;45.95;100889.13;5458783;26;1185;-60
2024/04/10 00:13:14;;;;;;;;;;;;;;;16.11;47.07;100889.00;5435034;26;1218;-58
2024/04/10 00:15:40;;;;;;;;;;;;;;;15.84;46.40;100882.81;5439457;26;1199;-57
2024/04/10 00:18:06;;;;;;;;;;;;;;;17.22;46.55;100886.59;5454454;26;1418;-60
2024/04/10 00:20:31;;;;;;;;;;;;;;;16.20;47.34;100888.38;5458666;26;1148;-59
2024/04/10 00:22:57;;;;;;;;;;;;;;;15.87;46.87;100881.72;5458288;26;1206;-61
2024/04/10 00:25:22;;;;;;;;;;;;;;;15.79;46.09;100876.97;5457603;26;1859;-61
2024/04/10 00:27:48;;;;;;;;;;;;;;;16.71;46.48;100876.00;5458385;26;1190;-61
2024/04/10 00:30:13;;;;;;;;;;;;;;;16.33;47.13;100863.63;5439531;26;1282;-60
2024/04/10 00:32:39;;;;;;;;;;;;;;;15.99;46.83;100870.34;5430205;26;1287;-61
2024/04/10 00:35:04;;;;;;;;;;;;;;;15.87;46.01;100873.78;5458027;26;1136;-58
2024/04/10 00:37:30;;;;;;;;;;;;;;;15.73;45.61;100875.56;5428090;26;1317;-59
2024/04/10 00:39:55;;;;;;;;;;;;;;;15.76;45.52;100874.50;5441366;26;1136;-60
2024/04/10 00:42:22;;;;;;;;;;;;;;;17.25;45.94;100865.09;5458604;26;1203;-63
2024/04/10 00:44:54;;;;;;;;;;;;;;;16.11;47.05;100871.28;5458252;26;1829;-61
2024/04/10 00:47:20;;;;;;;;;;;;;;;15.93;47.38;100867.22;5458188;26;1202;-61
2024/04/10 00:49:45;;;;;;;;;;;;;;;17.21;46.33;100872.47;5458617;26;1134;-59
2024/04/10 00:52:11;;;;;;;;;;;;;;;16.32;47.32;100864.56;5458285;26;1278;-61
2024/04/10 00:54:36;;;;;;;;;;;;;;;16.01;46.48;100863.13;5458334;26;1247;-61
2024/04/10 00:57:03;;;;;;;;;;;;;;;16.62;47.09;100863.38;5426640;26;1238;-59
2024/04/10 00:59:29;;;;;;;;;;;;;;;16.40;46.76;100857.78;5457997;26;1375;-60
2024/04/10 01:01:55;;;;;;;;;;;;;;;15.95;46.92;100857.34;5418773;26;1144;-58
2024/04/10 01:04:20;;;;;;;;;;;;;;;16.77;47.19;100864.06;5442423;26;1824;-61
2024/04/10 01:06:46;;;;;;;;;;;;;;;16.32;47.05;100862.78;5450130;26;1218;-62
2024/04/10 01:09:11;;;;;;;;;;;;;;;16.05;46.78;100870.88;5442380;26;1269;-62
2024/04/10 01:11:36;;;;;;;;;;;;;;;15.84;46.29;100858.06;5457724;26;1281;-62
2024/04/10 01:14:02;;;;;;;;;;;;;;;16.86;46.23;100865.22;5457742;26;1259;-62
2024/04/10 01:16:28;;;;;;;;;;;;;;;16.05;47.00;100860.25;5458223;26;1247;-65
2024/04/10 01:18:53;;;;;;;;;;;;;;;15.79;46.46;100859.25;5458242;26;1260;-62
2024/04/10 01:21:19;;;;;;;;;;;;;;;15.58;46.25;100856.22;5449211;26;1416;-62
2024/04/10 01:23:44;;;;;;;;;;;;;;;16.86;46.45;100868.75;5441759;26;1285;-60
2024/04/10 01:26:10;;;;;;;;;;;;;;;16.34;47.19;100858.22;5426533;26;1181;-60
2024/04/10 01:28:35;;;;;;;;;;;;;;;15.93;46.55;100860.13;5441631;26;1251;-60
2024/04/10 01:31:01;;;;;;;;;;;;;;;15.77;45.91;100863.81;5458153;26;1436;-60
2024/04/10 01:33:27;;;;;;;;;;;;;;;16.72;46.61;100867.06;5438462;26;1220;-60
2024/04/10 01:35:52;;;;;;;;;;;;;;;16.29;46.78;100863.00;5430451;26;1274;-58
2024/04/10 01:38:18;;;;;;;;;;;;;;;15.87;46.67;100858.72;5442512;26;1350;-59
2024/04/10 01:40:43;;;;;;;;;;;;;;;15.90;46.37;100860.28;5457330;26;1146;-58
2024/04/10 01:43:09;;;;;;;;;;;;;;;16.44;46.51;100852.25;5425934;26;1176;-60
2024/04/10 01:45:36;;;;;;;;;;;;;;;15.85;46.68;100857.97;5432806;26;1829;-60
2024/04/10 01:48:02;;;;;;;;;;;;;;;15.75;46.17;100857.75;5457381;26;1358;-59
2024/04/10 01:50:28;;;;;;;;;;;;;;;16.65;46.33;100857.81;5457719;26;1310;-61
2024/04/10 01:52:53;;;;;;;;;;;;;;;15.86;46.69;100854.38;5438121;26;1249;-60
2024/04/10 01:55:19;;;;;;;;;;;;;;;15.75;46.25;100855.09;5429238;26;1266;-61
2024/04/10 01:57:44;;;;;;;;;;;;;;;15.70;45.69;100859.03;5457487;26;1242;-59
2024/04/10 02:00:11;;;;;;;;;;;;;;;16.77;46.02;100866.72;5456896;26;1226;-61
2024/04/10 02:02:38;;;;;;;;;;;;;;;16.39;46.54;100857.88;5403179;26;1227;-61
2024/04/10 02:05:03;;;;;;;;;;;;;;;15.95;46.38;100852.88;5452305;26;1845;-61
2024/04/10 02:07:29;;;;;;;;;;;;;;;15.73;45.83;100850.84;5437993;26;1281;-60
2024/04/10 02:09:55;;;;;;;;;;;;;;;15.65;45.39;100854.00;5440577;26;1569;-58
2024/04/10 02:12:20;;;;;;;;;;;;;;;16.74;46.05;100862.50;5456696;26;1052;-58
2024/04/10 02:14:46;;;;;;;;;;;;;;;15.88;46.91;100860.41;5457287;26;1187;-58
2024/04/10 02:17:11;;;;;;;;;;;;;;;15.66;46.27;100871.63;5440811;26;1281;-61
2024/04/10 02:19:37;;;;;;;;;;;;;;;15.51;45.62;100878.81;5449517;26;1263;-58
2024/04/10 02:22:03;;;;;;;;;;;;;;;16.98;45.95;100885.56;5457221;26;1176;-59
2024/04/10 02:24:28;;;;;;;;;;;;;;;16.01;46.57;100884.34;5456661;26;1833;-59
2024/04/10 02:26:54;;;;;;;;;;;;;;;15.78;46.36;100884.06;5439810;26;1185;-58
2024/04/10 02:29:19;;;;;;;;;;;;;;;17.09;45.75;100887.50;5445882;26;1278;-58
2024/04/10 02:31:45;;;;;;;;;;;;;;;15.99;47.25;100880.94;5437661;26;1238;-59
2024/04/10 02:34:11;;;;;;;;;;;;;;;15.79;46.53;100883.13;5457458;26;1233;-60
2024/04/10 02:36:37;;;;;;;;;;;;;;;16.95;46.35;100885.81;5456748;26;971;-60
2024/04/10 02:39:02;;;;;;;;;;;;;;;16.14;46.75;100886.16;5453080;26;1170;-58
2024/04/10 02:41:28;;;;;;;;;;;;;;;15.90;46.22;100889.47;5436989;26;1277;-59
2024/04/10 02:43:54;;;;;;;;;;;;;;;15.71;45.89;100893.41;5456752;26;1833;-58
2024/04/10 02:46:19;;;;;;;;;;;;;;;16.94;45.98;100908.03;5456920;26;1242;-58
2024/04/10 02:48:45;;;;;;;;;;;;;;;16.03;46.89;100895.69;5454289;26;1191;-58
2024/04/10 02:51:11;;;;;;;;;;;;;;;15.90;46.37;100897.44;5456664;26;1259;-58
2024/04/10 02:53:37;;;;;;;;;;;;;;;15.66;45.92;100898.97;5424729;26;1179;-58
2024/04/10 02:56:02;;;;;;;;;;;;;;;16.57;46.46;100900.88;5456232;26;1302;-57
2024/04/10 02:58:28;;;;;;;;;;;;;;;15.96;46.40;100901.50;5456252;26;1282;-58
2024/04/10 03:00:54;;;;;;;;;;;;;;;15.83;45.87;100902.31;5456120;26;1080;-58
2024/04/10 03:03:20;;;;;;;;;;;;;;;15.60;45.63;100904.69;5455964;26;1215;-57
2024/04/10 03:05:46;;;;;;;;;;;;;;;16.51;46.31;100896.00;5456350;26;1866;-58
2024/04/10 03:08:12;;;;;;;;;;;;;;;15.89;46.69;100893.09;5424783;26;1172;-57
2024/04/10 03:10:38;;;;;;;;;;;;;;;15.65;46.35;100892.00;5439592;26;1298;-57
2024/04/10 03:13:04;;;;;;;;;;;;;;;15.52;45.80;100899.06;5448757;26;1239;-59
2024/04/10 03:15:30;;;;;;;;;;;;;;;16.75;45.67;100901.38;5451966;26;1556;-58
2024/04/10 03:17:55;;;;;;;;;;;;;;;15.89;46.57;100906.38;5437104;26;1179;-57
2024/04/10 03:20:21;;;;;;;;;;;;;;;15.86;46.66;100895.97;5427262;26;1334;-58
2024/04/10 03:22:46;;;;;;;;;;;;;;;16.16;46.47;100911.59;5426667;26;1194;-56
2024/04/10 03:25:12;;;;;;;;;;;;;;;15.76;46.44;100906.34;5450425;26;1834;-56
2024/04/10 03:27:39;;;;;;;;;;;;;;;16.95;46.15;100908.91;5456202;26;1298;-59
2024/04/10 03:30:07;;;;;;;;;;;;;;;16.11;46.74;100907.59;5448024;26;1666;-56
2024/04/10 03:32:32;;;;;;;;;;;;;;;15.70;46.55;100918.19;5449321;26;1429;-57
2024/04/10 03:34:58;;;;;;;;;;;;;;;15.66;46.22;100928.16;5440798;26;1321;-56
2024/04/10 03:37:23;;;;;;;;;;;;;;;17.28;45.70;100915.41;5455369;26;1203;-56
2024/04/10 03:39:49;;;;;;;;;;;;;;;16.08;47.06;100921.91;5455548;26;1191;-55
2024/04/10 03:42:15;;;;;;;;;;;;;;;15.83;46.25;100920.06;5431563;26;1225;-58
2024/04/10 03:44:40;;;;;;;;;;;;;;;16.28;46.91;100925.03;5456199;26;1833;-59
2024/04/10 03:47:06;;;;;;;;;;;;;;;17.00;46.01;100936.81;5455286;26;1225;-58
2024/04/10 03:49:32;;;;;;;;;;;;;;;16.87;47.31;100946.63;5440522;26;2834;-58
2024/04/10 03:51:57;;;;;;;;;;;;;;;18.46;45.27;100935.00;5451673;26;1136;-51
2024/04/10 03:54:23;;;;;;;;;;;;;;;14.91;51.94;100934.75;5454923;26;1242;-58
2024/04/10 03:56:48;;;;;;;;;;;;;;;17.68;47.68;100947.97;5454885;26;1155;-58
2024/04/10 03:59:14;;;;;;;;;;;;;;;17.57;47.38;100940.78;5455186;26;1292;-58
2024/04/10 04:01:41;;;;;;;;;;;;;;;15.28;54.82;100947.44;5458015;26;1241;-56
2024/04/10 04:04:06;;;;;;;;;;;;;;;18.20;47.73;100948.50;5458225;26;1837;-60
2024/04/10 04:06:32;;;;;;;;;;;;;;;17.53;47.95;100956.16;5439879;26;1871;-61
2024/04/10 04:08:58;;;;;;;;;;;;;;;17.46;48.70;100953.09;5449623;26;1208;-62
2024/04/10 04:11:23;;;;;;;;;;;;;;;17.28;48.70;100963.25;5435029;26;1223;-59
2024/04/10 04:13:49;;;;;;;;;;;;;;;17.07;48.72;100958.50;5453807;26;1242;-59
2024/04/10 04:16:14;;;;;;;;;;;;;;;16.85;48.95;100962.69;5412144;26;1975;-58
2024/04/10 04:18:40;;;;;;;;;;;;;;;16.70;49.21;100972.56;5457735;26;2642;-60
2024/04/10 04:21:06;;;;;;;;;;;;;;;16.56;49.48;100964.72;5445587;26;1176;-59
2024/04/10 04:23:31;;;;;;;;;;;;;;;16.40;49.59;100969.28;5458152;26;1279;-58
2024/04/10 04:25:57;;;;;;;;;;;;;;;16.37;49.46;100966.00;5457806;26;1858;-58
2024/04/10 04:28:22;;;;;;;;;;;;;;;15.44;49.51;100875.72;5457969;26;1274;-59
2024/04/10 04:30:48;;;;;;;;;;;;;;;16.12;49.80;100971.19;5457885;26;1277;-59
2024/04/10 04:33:14;;;;;;;;;;;;;;;16.01;49.78;100973.72;5457730;26;1218;-59
2024/04/10 04:35:39;;;;;;;;;;;;;;;15.95;49.80;100966.97;5458023;26;1219;-59
2024/04/10 04:38:05;;;;;;;;;;;;;;;15.84;50.01;100974.78;5457230;26;1520;-58
2024/04/10 04:40:31;;;;;;;;;;;;;;;16.73;48.86;100969.69;5457997;26;1324;-59
2024/04/10 04:42:59;;;;;;;;;;;;;;;17.44;47.11;100972.75;5457786;26;1314;-60
2024/04/10 04:45:25;;;;;;;;;;;;;;;16.62;48.85;100970.47;5458426;26;1822;-59
2024/04/10 04:47:51;;;;;;;;;;;;;;;16.21;49.89;100977.69;5457292;26;1269;-58
2024/04/10 04:50:16;;;;;;;;;;;;;;;16.07;50.14;100978.59;5456982;26;2918;-59
2024/04/10 04:52:43;;;;;;;;;;;;;;;15.95;50.39;100984.72;5433999;26;1115;-60
2024/04/10 04:55:08;;;;;;;;;;;;;;;15.89;50.25;100983.31;5457711;26;1175;-60
2024/04/10 04:57:34;;;;;;;;;;;;;;;16.95;48.51;100986.78;5448577;26;1693;-59
2024/04/10 05:00:11;;;;;;;;;;;;;;;17.14;47.30;100993.50;5425309;26;1486;-60
2024/04/10 05:02:37;;;;;;;;;;;;;;;16.47;49.10;100988.31;5456913;26;1051;-62
2024/04/10 05:05:02;;;;;;;;;;;;;;;16.23;49.52;100985.53;5457753;26;1857;-60
2024/04/10 05:07:28;;;;;;;;;;;;;;;15.98;50.15;100990.66;5452018;26;1599;-58
2024/04/10 05:09:54;;;;;;;;;;;;;;;15.87;50.36;100980.75;5433343;26;1361;-57
2024/04/10 05:12:21;;;;;;;;;;;;;;;16.70;49.14;100983.19;5456398;26;1279;-57
2024/04/10 05:14:53;;;;;;;;;;;;;;;17.22;47.51;100993.78;5429659;26;1720;-59
2024/04/10 05:17:18;;;;;;;;;;;;;;;16.52;49.00;100986.19;5422998;26;1306;-60
2024/04/10 05:19:44;;;;;;;;;;;;;;;16.24;49.59;100989.88;5444565;26;2839;-59
2024/04/10 05:22:10;;;;;;;;;;;;;;;16.09;49.73;100992.63;5447250;26;1273;-60
2024/04/10 05:24:35;;;;;;;;;;;;;;;15.89;50.33;100988.59;5456428;26;1826;-61
2024/04/10 05:27:04;;;;;;;;;;;;;;;17.15;47.45;100986.38;5456046;26;1334;-59
2024/04/10 05:29:30;;;;;;;;;;;;;;;17.21;46.92;100996.56;5441384;26;1373;-60
2024/04/10 05:31:55;;;;;;;;;;;;;;;16.60;48.61;101001.59;5456228;26;1243;-58
2024/04/10 05:34:21;;;;;;;;;;;;;;;16.26;49.49;100996.81;5443063;26;1114;-59
2024/04/10 05:36:46;;;;;;;;;;;;;;;16.09;49.63;100995.28;5446938;26;1428;-59
2024/04/10 05:39:21;;;;;;;;;;;;;;;15.96;50.15;100995.22;5456917;26;1487;-59
2024/04/10 05:41:47;;;;;;;;;;;;;;;17.21;47.40;100992.09;5456537;26;1376;-58
2024/04/10 05:44:12;;;;;;;;;;;;;;;17.07;47.35;100997.50;5445319;26;1829;-59
2024/04/10 05:46:38;;;;;;;;;;;;;;;16.52;48.84;100993.28;5431038;26;1699;-59
2024/04/10 05:49:05;;;;;;;;;;;;;;;16.30;49.48;100993.94;5429997;26;2639;-59
2024/04/10 05:51:31;;;;;;;;;;;;;;;16.07;50.16;100993.66;5441604;26;1319;-61
2024/04/10 05:53:57;;;;;;;;;;;;;;;15.97;50.13;100996.91;5446068;26;1658;-63
2024/04/10 05:56:23;;;;;;;;;;;;;;;15.89;50.17;100993.91;5450181;26;1158;-60
2024/04/10 05:58:49;;;;;;;;;;;;;;;17.02;48.17;100992.50;5454096;26;1297;-58
2024/04/10 06:01:15;;;;;;;;;;;;;;;17.27;47.37;100992.63;5440500;26;1361;-59
2024/04/10 06:03:40;;;;;;;;;;;;;;;16.60;48.62;100998.94;5452609;26;1474;-56
2024/04/10 06:06:06;;;;;;;;;;;;;;;16.33;49.34;100999.84;5437251;26;1847;-59
2024/04/10 06:08:32;;;;;;;;;;;;;;;16.08;49.97;100996.22;5456549;26;1515;-61
2024/04/10 06:10:57;;;;;;;;;;;;;;;15.99;50.25;100991.53;5456974;26;1089;-62
2024/04/10 06:13:23;;;;;;;;;;;;;;;16.08;50.22;100992.72;5455686;26;1187;-61
2024/04/10 06:15:57;;;;;;;;;;;;;;;17.55;47.02;100990.59;5456368;26;1244;-60
2024/04/10 06:18:23;;;;;;;;;;;;;;;16.93;47.75;100990.53;5456304;26;1127;-60
2024/04/10 06:20:55;;;;;;;;;;;;;;;16.44;48.86;100998.28;5438257;26;2822;-59
2024/04/10 06:23:21;;;;;;;;;;;;;;;16.17;49.51;100984.13;5451373;26;1135;-60
2024/04/10 06:25:49;;;;;;;;;;;;;;;16.09;49.92;100986.44;5455719;26;1825;-61
2024/04/10 06:28:15;;;;;;;;;;;;;;;16.85;48.54;100996.38;5449336;26;1324;-63
2024/04/10 06:30:42;;;;;;;;;;;;;;;17.47;46.67;100986.69;5445349;26;1405;-62
2024/04/10 06:33:07;;;;;;;;;;;;;;;16.71;48.17;100987.56;5449795;26;1296;-59
2024/04/10 06:35:33;;;;;;;;;;;;;;;16.39;49.49;100985.34;5433321;26;1726;-63
2024/04/10 06:37:58;;;;;;;;;;;;;;;16.24;49.65;100990.75;5443730;26;1693;-59
2024/04/10 06:40:24;;;;;;;;;;;;;;;16.09;49.93;100986.44;5456199;26;1242;-58
2024/04/10 06:42:49;;;;;;;;;;;;;;;15.98;50.19;100984.50;5440534;26;1306;-58
2024/04/10 06:45:15;;;;;;;;;;;;;;;17.17;47.94;100990.59;5455708;26;1818;-59
2024/04/10 06:47:41;;;;;;;;;;;;;;;17.05;47.56;100983.50;5444270;26;1622;-58
2024/04/10 06:50:06;;;;;;;;;;;;;;;16.60;48.71;100990.97;5434175;26;2785;-58
2024/04/10 06:52:32;;;;;;;;;;;;;;;16.32;49.53;100984.03;5441068;26;1174;-59
2024/04/10 06:54:57;;;;;;;;;;;;;;;16.15;49.93;100983.38;5432014;26;1632;-59
2024/04/10 06:57:23;;;;;;;;;;;;;;;16.07;50.27;100985.69;5434031;26;1757;-60
2024/04/10 06:59:48;;;;;;;;;;;;;;;16.21;50.23;100982.13;5428748;26;1186;-56
2024/04/10 07:02:14;;;;;;;;;;;;;;;17.59;46.60;100979.63;5455600;26;1158;-64
2024/04/10 07:04:39;;;;;;;;;;;;;;;16.98;47.90;100983.06;5454158;26;1829;-61
2024/04/10 07:07:05;;;;;;;;;;;;;;;16.49;48.90;100977.56;5438359;26;1647;-60
2024/04/10 07:09:32;;;;;;;;;;;;;;;16.27;49.50;100971.09;5449153;26;1115;-58
2024/04/10 07:11:57;;;;;;;;;;;;;;;16.18;49.99;100980.53;5438159;26;1334;-56
2024/04/10 07:14:23;;;;;;;;;;;;;;;16.01;50.20;100976.38;5429073;26;1722;-61
2024/04/10 07:16:48;;;;;;;;;;;;;;;16.75;49.08;100973.09;5436207;26;1687;-59
2024/04/10 07:19:14;;;;;;;;;;;;;;;17.19;47.27;100958.59;5429011;26;2735;-58
2024/04/10 07:21:41;;;;;;;;;;;;;;;16.64;48.99;100965.91;5466468;26;2136;-58
2024/04/10 07:24:08;;;;;;;;;;;;;;;16.33;49.53;100957.38;5436735;26;1869;-59
2024/04/10 07:26:33;;;;;;;;;;;;;;;16.16;49.93;100954.06;5421888;26;1509;-59
2024/04/10 07:28:59;;;;;;;;;;;;;;;16.03;50.16;100956.72;5438867;26;1718;-60
2024/04/10 07:31:36;;;;;;;;;;;;;;;15.87;50.60;100956.88;5442681;26;1360;-60
2024/04/10 07:34:03;;;;;;;;;;;;;;;16.63;49.11;100958.03;5434578;26;1164;-57
2024/04/10 07:36:30;;;;;;;;;;;;;;;17.73;46.30;100959.13;5458717;26;1184;-55
2024/04/10 07:38:56;;;;;;;;;;;;;;;16.80;48.28;100953.34;5458582;26;1038;-63
2024/04/10 07:41:21;;;;;;;;;;;;;;;16.62;49.93;100954.53;5427511;26;1155;-58
2024/04/10 07:43:47;;;;;;;;;;;;;;;16.35;49.61;100949.34;5445031;26;1254;-63
2024/04/10 07:46:13;;;;;;;;;;;;;;;16.18;49.99;100945.19;5422755;26;1849;-63
2024/04/10 07:48:39;;;;;;;;;;;;;;;15.96;50.49;100944.81;5437427;26;1258;-57
2024/04/10 07:51:04;;;;;;;;;;;;;;;15.96;50.42;100941.28;5458253;26;1297;-61
2024/04/10 07:53:31;;;;;;;;;;;;;;;16.28;49.96;100943.59;5436803;26;2853;-57
2024/04/10 07:55:57;;;;;;;;;;;;;;;17.65;46.89;100943.72;5429099;26;2235;-60
2024/04/10 07:58:22;;;;;;;;;;;;;;;16.91;48.12;100945.47;5442152;26;2164;-59
2024/04/10 08:00:49;;;;;;;;;;;;;;;16.51;49.29;100944.66;5450327;26;2386;-59
2024/04/10 08:03:14;;;;;;;;;;;;;;;16.24;50.15;100940.31;5452349;26;2212;-57
2024/04/10 08:05:40;;;;;;;;;;;;;;;16.10;50.10;100943.88;5455494;26;2261;-61
2024/04/10 08:08:06;;;;;;;;;;;;;;;16.00;50.65;100945.47;5439196;26;1670;-60
2024/04/10 08:10:31;;;;;;;;;;;;;;;15.89;50.89;100946.16;5438510;26;1471;-57
2024/04/10 08:12:59;;;;;;;;;;;;;;;17.11;48.30;100945.88;5451020;26;1284;-58
2024/04/10 08:15:25;;;;;;;;;;;;;;;17.26;47.36;100938.59;5421055;26;1405;-58
2024/04/10 08:17:50;;;;;;;;;;;;;;;16.63;49.00;100940.28;5443055;26;1225;-59
2024/04/10 08:20:16;;;;;;;;;;;;;;;16.34;49.83;100937.88;5441495;26;1504;-55
2024/04/10 08:22:42;;;;;;;;;;;;;;;16.21;50.07;100931.69;5434534;26;1803;-60
2024/04/10 08:25:08;;;;;;;;;;;;;;;16.13;50.03;100934.88;5443796;26;1830;-59
2024/04/10 08:27:34;;;;;;;;;;;;;;;15.99;50.34;100925.19;5449559;26;1388;-57
2024/04/10 08:29:59;;;;;;;;;;;;;;;16.54;49.63;100930.31;5432334;26;1804;-61
2024/04/10 08:32:25;;;;;;;;;;;;;;;17.57;46.68;100930.13;5434614;26;1423;-59
2024/04/10 08:34:51;;;;;;;;;;;;;;;16.81;48.63;100928.47;5440697;26;1373;-58
2024/04/10 08:37:16;;;;;;;;;;;;;;;16.43;49.51;100922.25;5450248;26;2903;-57
2024/04/10 08:39:42;;;;;;;;;;;;;;;16.28;49.90;100915.22;5446843;26;1173;-56
2024/04/10 08:42:07;;;;;;;;;;;;;;;16.16;50.36;100926.72;5429196;26;1587;-56
2024/04/10 08:44:33;;;;;;;;;;;;;;;16.07;50.33;100916.69;5423458;26;1857;-59
2024/04/10 08:46:58;;;;;;;;;;;;;;;16.09;50.48;100914.81;5449669;26;1697;-57
2024/04/10 08:49:24;;;;;;;;;;;;;;;17.51;47.39;100926.13;5412494;26;1193;-57
2024/04/10 08:51:49;;;;;;;;;;;;;;;17.11;47.86;100920.13;5425952;26;1174;-57
2024/04/10 08:54:16;;;;;;;;;;;;;;;16.59;49.14;100928.19;5407323;26;1354;-57
2024/04/10 08:56:41;;;;;;;;;;;;;;;16.36;49.60;100924.47;5454506;26;1153;-57
2024/04/10 08:59:07;;;;;;;;;;;;;;;16.27;49.88;100923.31;5457430;26;1114;-57
2024/04/10 09:01:41;;;;;;;;;;;;;;;16.16;50.29;100924.06;5446905;26;1367;-57
2024/04/10 09:04:10;;;;;;;;;;;;;;;16.00;50.46;100925.09;5426932;26;1838;-56
2024/04/10 09:06:36;;;;;;;;;;;;;;;16.02;50.68;100919.69;5429912;26;1287;-58
2024/04/10 09:09:08;;;;;;;;;;;;;;;17.46;47.35;100926.50;5451401;26;1346;-58
2024/04/10 09:11:34;;;;;;;;;;;;;;;16.90;48.49;100925.13;5448651;26;1316;-57
2024/04/10 09:14:03;;;;;;;;;;;;;;;16.45;49.49;100937.09;5439932;26;1369;-57
2024/04/10 09:16:29;;;;;;;;;;;;;;;16.27;49.78;100934.78;5439702;26;1647;-57
2024/04/10 09:18:55;;;;;;;;;;;;;;;16.15;50.38;100944.44;5451428;26;1386;-57
2024/04/10 09:21:20;;;;;;;;;;;;;;;16.09;50.31;100944.84;5447669;26;1159;-56
2024/04/10 09:23:46;;;;;;;;;;;;;;;15.99;50.43;100947.28;5442098;26;1357;-57
2024/04/10 09:26:17;;;;;;;;;;;;;;;15.90;50.55;100950.50;5457455;26;1838;-57
2024/04/10 09:28:43;;;;;;;;;;;;;;;16.93;48.76;100956.84;5456267;26;1119;-58
2024/04/10 09:31:19;;;;;;;;;;;;;;;17.58;46.53;100953.13;5425486;26;1260;-60
2024/04/10 09:33:44;;;;;;;;;;;;;;;16.74;48.80;100957.28;5432345;26;1289;-57
2024/04/10 09:36:10;;;;;;;;;;;;;;;16.50;49.45;100950.91;5456817;26;1115;-59
2024/04/10 09:38:36;;;;;;;;;;;;;;;16.22;49.97;100946.66;5425039;26;1365;-56
2024/04/10 09:41:03;;;;;;;;;;;;;;;16.16;50.16;100953.25;5424785;26;1283;-54
2024/04/10 09:43:28;;;;;;;;;;;;;;;16.02;50.22;100955.03;5454100;26;1498;-56
2024/04/10 09:45:55;;;;;;;;;;;;;;;16.64;49.46;100959.72;5425653;26;1830;-57
2024/04/10 09:48:20;;;;;;;;;;;;;;;17.69;46.95;100947.84;5403441;26;1610;-53
2024/04/10 09:50:46;;;;;;;;;;;;;;;16.89;48.36;100947.38;5395321;26;1620;-57
2024/04/10 09:53:12;;;;;;;;;;;;;;;16.57;49.36;100953.13;5434146;26;1271;-57
2024/04/10 09:55:40;;;;;;;;;;;;;;;16.34;50.05;100959.09;5444990;26;2586;-57
2024/04/10 09:58:06;;;;;;;;;;;;;;;16.19;50.07;100957.47;5396614;26;1680;-56
2024/04/10 10:00:32;;;;;;;;;;;;;;;16.05;50.46;100953.13;5409470;26;1138;-54
2024/04/10 10:03:07;;;;;;;;;;;;;;;16.09;49.09;100838.69;5416895;26;1173;-56
2024/04/10 10:05:38;;;;;;;;;;;;;;;17.39;47.07;100951.81;5446719;26;1858;-55
2024/04/10 10:08:04;;;;;;;;;;;;;;;16.72;48.89;100954.72;5448845;26;1685;-58
2024/04/10 10:10:30;;;;;;;;;;;;;;;16.45;49.65;100957.53;5402103;26;1412;-57
2024/04/10 10:13:05;;;;;;;;;;;;;;;16.28;49.93;100962.19;5456110;26;1314;-62
2024/04/10 10:15:31;;;;;;;;;;;;;;;16.12;50.40;100955.25;5440066;26;1277;-61
2024/04/10 10:17:56;;;;;;;;;;;;;;;16.00;50.42;100961.38;5456779;26;1236;-56
2024/04/10 10:20:22;;;;;;;;;;;;;;;15.95;50.57;100963.47;5455970;26;1222;-60
2024/04/10 10:23:01;;;;;;;;;;;;;;;16.45;50.00;100973.44;5456217;26;1203;-58
2024/04/10 10:25:27;;;;;;;;;;;;;;;17.57;46.87;100972.69;5456602;26;3062;-58
2024/04/10 10:28:02;;;;;;;;;;;;;;;16.86;48.72;100974.16;5449764;26;1406;-55
2024/04/10 10:30:28;;;;;;;;;;;;;;;16.39;49.82;100967.59;5445445;26;1218;-56
2024/04/10 10:33:00;;;;;;;;;;;;;;;16.23;50.39;100966.97;5455952;26;1338;-57
2024/04/10 10:35:25;;;;;;;;;;;;;;;16.10;50.48;100970.44;5453928;26;1378;-56
2024/04/10 10:37:51;;;;;;;;;;;;;;;16.10;50.73;100978.38;5424729;26;1234;-56
2024/04/10 10:40:16;;;;;;;;;;;;;;;17.51;47.95;100971.34;5453438;26;1661;-58
2024/04/10 10:42:42;;;;;;;;;;;;;;;16.98;48.42;100965.31;5433384;26;1208;-56
2024/04/10 10:45:08;;;;;;;;;;;;;;;16.54;49.60;100967.50;5453992;26;1825;-57
2024/04/10 10:47:38;;;;;;;;;;;;;;;16.35;49.89;100967.94;5451252;26;1385;-57
2024/04/10 10:50:04;;;;;;;;;;;;;;;16.13;50.64;100970.22;5446594;26;1186;-57
2024/04/10 10:52:30;;;;;;;;;;;;;;;16.05;50.84;100975.19;5445528;26;1397;-56
2024/04/10 10:54:56;;;;;;;;;;;;;;;16.23;50.71;100964.31;5448196;26;2765;-56
2024/04/10 10:57:22;;;;;;;;;;;;;;;17.56;47.81;100971.00;5424249;26;1204;-57
2024/04/10 10:59:47;;;;;;;;;;;;;;;16.81;49.23;100979.81;5455812;26;1266;-58
2024/04/10 11:02:14;;;;;;;;;;;;;;;16.54;49.88;100988.75;5455965;26;1234;-58
2024/04/10 11:04:39;;;;;;;;;;;;;;;16.27;50.50;100969.28;5424150;26;1867;-58
2024/04/10 11:07:05;;;;;;;;;;;;;;;16.17;50.75;100978.81;5455865;26;1126;-57
2024/04/10 11:09:32;;;;;;;;;;;;;;;15.98;51.21;100971.22;5454422;26;1588;-58
2024/04/10 11:11:58;;;;;;;;;;;;;;;16.53;50.57;100989.72;5456234;26;1280;-59
2024/04/10 11:14:23;;;;;;;;;;;;;;;17.60;47.52;100981.31;5455334;26;1167;-59
2024/04/10 11:17:03;;;;;;;;;;;;;;;16.87;49.42;100974.06;5455565;26;1065;-59
2024/04/10 11:19:30;;;;;;;;;;;;;;;16.42;50.62;100982.47;5455280;26;1159;-59
2024/04/10 11:21:56;;;;;;;;;;;;;;;16.27;50.89;100973.75;5456422;26;1137;-57
2024/04/10 11:24:21;;;;;;;;;;;;;;;16.08;51.35;100982.94;5451794;26;2631;-57
2024/04/10 11:26:47;;;;;;;;;;;;;;;16.63;50.67;100984.59;5435363;26;1357;-57
2024/04/10 11:29:12;;;;;;;;;;;;;;;17.59;47.81;100978.75;5454897;26;1089;-60
2024/04/10 11:31:38;;;;;;;;;;;;;;;16.78;50.08;100974.72;5446327;26;1370;-58
2024/04/10 11:34:03;;;;;;;;;;;;;;;16.52;50.87;100972.91;5449289;26;1948;-58
2024/04/10 11:36:29;;;;;;;;;;;;;;;16.33;51.21;100969.84;5445620;26;1841;-59
2024/04/10 11:38:54;;;;;;;;;;;;;;;16.16;51.44;100975.31;5454918;26;1191;-59
2024/04/10 11:41:20;;;;;;;;;;;;;;;16.08;51.53;100979.47;5454158;26;1442;-57
2024/04/10 11:43:45;;;;;;;;;;;;;;;17.30;49.14;100984.41;5454949;26;1157;-56
2024/04/10 11:46:11;;;;;;;;;;;;;;;17.11;49.50;100969.78;5438072;26;1833;-58
2024/04/10 11:48:37;;;;;;;;;;;;;;;16.64;50.67;100971.22;5423921;26;1198;-54
2024/04/10 11:51:03;;;;;;;;;;;;;;;16.34;51.26;100975.03;5451071;26;1362;-55
2024/04/10 11:53:30;;;;;;;;;;;;;;;16.20;51.60;100981.28;5450464;26;2535;-57
2024/04/10 11:55:56;;;;;;;;;;;;;;;16.06;51.77;100971.59;5402759;26;1296;-59
2024/04/10 11:58:21;;;;;;;;;;;;;;;16.00;51.91;100978.16;5455207;26;1245;-58
2024/04/10 12:00:47;;;;;;;;;;;;;;;17.34;49.50;100973.44;5454645;26;1161;-58
2024/04/10 12:03:13;;;;;;;;;;;;;;;17.08;49.82;100973.47;5454516;26;1237;-58
2024/04/10 12:05:38;;;;;;;;;;;;;;;16.59;50.79;100978.66;5454279;26;1833;-59
2024/04/10 12:08:04;;;;;;;;;;;;;;;16.36;51.50;100972.28;5454394;26;1246;-57
2024/04/10 12:10:31;;;;;;;;;;;;;;;16.17;51.95;100978.81;5454457;26;1226;-58
2024/04/10 12:12:57;;;;;;;;;;;;;;;16.03;52.04;100977.13;5439347;26;1163;-57
2024/04/10 12:15:23;;;;;;;;;;;;;;;15.97;52.03;100970.38;5454704;26;1216;-58
2024/04/10 12:17:48;;;;;;;;;;;;;;;17.12;50.44;100979.44;5454074;26;1061;-58
2024/04/10 12:20:15;;;;;;;;;;;;;;;17.06;50.05;100971.88;5425760;26;1593;-58
2024/04/10 12:22:41;;;;;;;;;;;;;;;16.50;51.57;100980.13;5443736;26;1716;-58
2024/04/10 12:25:06;;;;;;;;;;;;;;;16.35;51.74;100975.88;5458158;26;2845;-58
2024/04/10 12:27:32;;;;;;;;;;;;;;;16.20;51.63;100973.31;5452921;26;1092;-59
2024/04/10 12:29:57;;;;;;;;;;;;;;;16.02;52.15;100967.44;5442914;26;1098;-60
2024/04/10 12:32:24;;;;;;;;;;;;;;;15.96;52.35;100970.47;5449482;26;1282;-58
2024/04/10 12:34:51;;;;;;;;;;;;;;;16.83;51.35;100979.69;5458158;26;1440;-59
2024/04/10 12:40:01;;;;;;;;;;;;;;;16.69;51.52;100970.03;5431582;26;2084;-58
2024/04/10 12:42:27;;;;;;;;;;;;;;;16.37;51.86;100963.34;5438719;26;1567;-58
2024/04/10 12:44:52;;;;;;;;;;;;;;;16.20;52.30;100961.84;5424653;26;1920;-58